createdAt,value
2023-05-11T01:15:46.239Z,3.55
2023-05-11T01:38:43.808Z,1.75
2023-05-11T02:01:40.546Z,7.10
2023-05-11T02:36:00.330Z,4.03
2023-05-11T02:46:15.983Z,2.28
2023-05-11T02:56:36.909Z,4.80
2023-05-11T03:06:49.267Z,2.05
2023-05-11T03:17:01.677Z,2.53
2023-05-11T03:27:12.431Z,3.67
2023-05-11T03:37:28.151Z,3.08
2023-05-11T03:47:38.869Z,1.80
2023-05-11T03:57:47.989Z,2.63
2023-05-11T04:07:54.888Z,2.28
2023-05-11T04:18:03.655Z,2.88
2023-05-11T04:28:11.848Z,1.83
2023-05-11T04:38:20.800Z,1.40
2023-05-11T04:48:34.244Z,1.70
2023-05-11T04:59:39.364Z,2.83
2023-05-11T05:10:36.519Z,1.67
2023-05-11T05:20:45.177Z,1.42
2023-05-11T05:30:52.228Z,1.38
2023-05-11T05:41:03.256Z,1.13
2023-05-11T05:51:39.395Z,1.27
2023-05-11T06:01:48.347Z,1.20
2023-05-11T06:11:56.152Z,1.10
2023-05-11T06:22:06.941Z,2.20
2023-05-11T06:32:15.353Z,1.35
2023-05-11T06:42:25.026Z,1.15
2023-05-11T06:52:43.220Z,0.90
2023-05-11T07:02:51.807Z,1.00
2023-05-11T07:12:58.486Z,0.95
2023-05-11T07:23:13.085Z,1.10
2023-05-11T07:33:20.329Z,1.20
2023-05-11T07:43:28.652Z,1.58
2023-05-11T07:53:35.810Z,1.05
2023-05-11T08:03:44.736Z,1.02
2023-05-11T08:13:51.497Z,0.70
2023-05-11T08:24:02.066Z,0.80
2023-05-11T08:34:18.688Z,0.70
2023-05-11T08:44:30.098Z,0.80
2023-05-11T08:54:36.876Z,0.60
2023-05-11T09:04:49.261Z,0.60
2023-05-11T09:15:02.530Z,0.50
2023-05-11T09:25:22.163Z,0.60
2023-05-11T09:35:30.881Z,0.60
2023-05-11T09:45:45.988Z,0.52
2023-05-11T09:55:55.786Z,0.57
2023-05-11T10:06:05.568Z,0.50
2023-05-11T10:16:17.681Z,0.50
2023-05-11T10:26:26.904Z,0.50
2023-05-11T10:36:34.695Z,0.50
2023-05-11T10:47:01.729Z,0.50
2023-05-11T10:57:33.418Z,0.50
2023-05-11T11:08:10.149Z,0.40
2023-05-11T11:18:27.023Z,0.50
2023-05-11T11:29:13.709Z,0.40
2023-05-11T11:39:26.249Z,0.60
2023-05-11T11:49:35.147Z,0.73
2023-05-11T11:59:50.484Z,0.65
2023-05-11T12:09:59.715Z,0.50
2023-05-11T12:20:20.926Z,0.60
2023-05-11T12:30:31.042Z,0.50
2023-05-11T12:40:39.806Z,0.60
2023-05-11T12:50:49.379Z,0.60
2023-05-11T13:00:57.027Z,0.60
2023-05-11T13:11:24.076Z,0.65
2023-05-11T13:21:31.198Z,1.15
2023-05-11T13:31:46.143Z,0.60
2023-05-11T13:41:56.182Z,0.70
2023-05-11T13:52:04.701Z,0.63
2023-05-11T14:02:14.886Z,0.70
2023-05-11T14:12:25.953Z,0.60
2023-05-11T14:22:32.878Z,1.33
2023-05-11T14:32:41.282Z,1.05
2023-05-11T14:42:48.739Z,3.00
2023-05-11T14:52:57.398Z,2.13
2023-05-11T15:03:04.423Z,2.22
2023-05-11T15:13:12.782Z,2.53
2023-05-11T15:23:24.619Z,6.25
2023-05-11T15:33:36.027Z,3.13
2023-05-11T15:43:43.499Z,1.48
2023-05-11T15:53:54.903Z,1.42
2023-05-11T16:04:11.767Z,1.30
2023-05-11T16:14:22.591Z,1.65
2023-05-11T16:24:32.868Z,2.20
2023-05-11T16:34:42.587Z,1.80
2023-05-11T16:45:25.899Z,3.25
2023-05-11T16:55:34.382Z,1.73
2023-05-11T17:05:41.197Z,2.55
2023-05-11T17:15:52.225Z,2.45
2023-05-11T17:25:59.127Z,1.98
2023-05-11T17:36:33.102Z,2.22
2023-05-11T17:46:43.275Z,3.97
2023-05-11T17:56:54.815Z,5.13
2023-05-11T18:07:01.883Z,3.25
2023-05-11T18:17:36.874Z,3.03
2023-05-11T18:27:44.732Z,4.88
2023-05-11T18:38:42.680Z,4.15
2023-05-11T18:49:35.960Z,3.35
2023-05-11T19:00:12.419Z,5.03
2023-05-11T19:10:30.219Z,2.78
2023-05-11T19:21:03.522Z,4.78
2023-05-11T19:31:10.645Z,3.28
2023-05-11T19:41:26.227Z,2.75
2023-05-11T19:51:48.833Z,3.78
2023-05-11T20:02:47.320Z,3.38
2023-05-11T20:12:54.376Z,2.33
2023-05-11T20:23:04.773Z,3.67
2023-05-11T20:43:22.714Z,4.38
2023-05-11T20:53:32.107Z,2.78
2023-05-11T21:04:04.331Z,2.78
2023-05-11T21:48:13.042Z,4.50
2023-05-11T21:58:44.456Z,2.67
2023-05-11T22:09:05.741Z,2.88
2023-05-11T22:42:00.278Z,3.33
2023-05-11T22:52:07.588Z,2.50
2023-05-11T23:02:34.189Z,4.53
2023-05-11T23:12:41.005Z,1.30
2023-05-11T23:22:49.587Z,1.65
2023-05-11T23:32:56.327Z,2.42
2023-05-11T23:43:04.722Z,1.30
2023-05-11T23:53:38.965Z,1.58
